createdAt,value
2018-02-13T00:01:04.126Z,1.42
2018-02-13T00:02:31.108Z,1.40
2018-02-13T00:03:57.875Z,1.43
2018-02-13T00:05:24.369Z,1.43
2018-02-13T00:06:51.442Z,1.46
2018-02-13T00:08:18.428Z,1.45
2018-02-13T00:09:44.398Z,1.50
2018-02-13T00:11:12.238Z,1.53
2018-02-13T00:12:39.108Z,1.54
2018-02-13T00:14:05.398Z,1.52
2018-02-13T00:15:32.704Z,1.53
2018-02-13T00:17:00.930Z,1.51
2018-02-13T00:18:27.624Z,1.53
2018-02-13T00:19:53.757Z,1.54
2018-02-13T00:21:21.703Z,1.53
2018-02-13T00:22:47.940Z,1.53
2018-02-13T00:24:14.973Z,1.52
2018-02-13T00:25:42.061Z,1.52
2018-02-13T00:27:09.121Z,1.53
2018-02-13T00:28:36.123Z,1.50
2018-02-13T00:30:03.993Z,1.50
2018-02-13T00:31:30.190Z,1.51
2018-02-13T00:32:58.514Z,1.51
2018-02-13T00:34:25.575Z,1.49
2018-02-13T00:35:52.687Z,1.47
2018-02-13T00:37:19.530Z,1.37
2018-02-13T00:38:46.678Z,1.34
2018-02-13T00:40:13.855Z,1.31
2018-02-13T00:41:39.945Z,1.28
2018-02-13T00:43:07.961Z,1.27
2018-02-13T00:44:35.197Z,1.23
2018-02-13T00:46:02.353Z,1.18
2018-02-13T00:47:28.442Z,1.16
2018-02-13T00:48:55.660Z,1.16
2018-02-13T00:50:22.867Z,1.14
2018-02-13T00:51:49.156Z,1.11
2018-02-13T00:53:17.303Z,1.16
2018-02-13T00:54:43.261Z,1.20
2018-02-13T00:56:10.207Z,1.22
2018-02-13T00:57:36.908Z,1.26
2018-02-13T00:59:04.024Z,1.29
2018-02-13T01:00:30.725Z,1.32
2018-02-13T01:01:57.926Z,1.33
2018-02-13T01:03:26.051Z,1.33
2018-02-13T01:04:53.350Z,1.35
2018-02-13T01:06:19.385Z,1.36
2018-02-13T01:07:47.745Z,1.35
2018-02-13T01:09:14.695Z,1.35
2018-02-13T01:10:41.249Z,1.34
2018-02-13T01:12:07.292Z,1.33
2018-02-13T01:13:35.464Z,1.33
2018-02-13T01:15:02.671Z,1.31
2018-02-13T01:16:29.864Z,1.30
2018-02-13T01:17:56.976Z,1.28
2018-02-13T01:19:24.113Z,1.27
2018-02-13T01:20:51.284Z,1.25
2018-02-13T01:22:18.511Z,1.23
2018-02-13T01:23:44.461Z,1.21
2018-02-13T01:25:12.105Z,1.18
2018-02-13T01:26:37.781Z,1.16
2018-02-13T01:28:04.993Z,1.13
2018-02-13T01:29:32.202Z,1.12
2018-02-13T01:31:00.432Z,1.10
2018-02-13T01:32:26.490Z,1.08
2018-02-13T01:33:53.350Z,1.06
2018-02-13T01:35:20.430Z,1.02
2018-02-13T01:36:47.030Z,1.00
2018-02-13T01:38:14.537Z,0.97
2018-02-13T01:39:41.037Z,0.94
2018-02-13T01:41:08.100Z,0.93
2018-02-13T01:42:35.254Z,0.91
2018-02-13T01:44:01.447Z,0.91
2018-02-13T01:45:29.554Z,0.92
2018-02-13T01:46:56.462Z,0.93
2018-02-13T01:48:23.595Z,0.92
2018-02-13T01:49:50.333Z,0.92
2018-02-13T01:51:17.277Z,0.91
2018-02-13T01:52:44.326Z,0.90
2018-02-13T01:54:11.461Z,0.90
2018-02-13T01:55:37.537Z,0.91
2018-02-13T01:57:07.669Z,0.91
2018-02-13T01:58:31.057Z,0.92
2018-02-13T01:59:58.185Z,0.92
2018-02-13T02:01:25.286Z,0.92
2018-02-13T02:02:53.380Z,0.91
2018-02-13T02:04:19.484Z,0.90
2018-02-13T02:05:47.469Z,0.86
2018-02-13T02:07:13.733Z,0.82
2018-02-13T02:08:40.273Z,0.83
2018-02-13T02:10:08.281Z,0.83
2018-02-13T02:11:35.489Z,0.82
2018-02-13T02:13:04.501Z,0.82
2018-02-13T02:14:27.903Z,0.83
2018-02-13T02:15:55.858Z,0.85
2018-02-13T02:17:22.831Z,0.87
2018-02-13T02:18:49.795Z,0.88
2018-02-13T02:20:16.908Z,0.88
2018-02-13T02:21:43.930Z,0.89
2018-02-13T02:23:10.637Z,0.89
2018-02-13T02:24:36.410Z,0.87
2018-02-13T02:26:03.568Z,0.85
2018-02-13T02:27:30.964Z,0.85
2018-02-13T02:28:57.615Z,0.85
2018-02-13T02:30:24.844Z,0.86
2018-02-13T02:31:51.000Z,0.87
2018-02-13T02:33:18.161Z,0.88
2018-02-13T02:34:44.715Z,0.89
2018-02-13T02:36:12.857Z,0.89
2018-02-13T02:37:38.815Z,0.89
2018-02-13T02:39:07.015Z,0.89
2018-02-13T02:40:34.334Z,0.88
2018-02-13T02:42:00.578Z,0.89
2018-02-13T02:43:28.634Z,0.90
2018-02-13T02:44:54.642Z,0.90
2018-02-13T02:46:21.068Z,0.89
2018-02-13T02:47:49.237Z,0.89
2018-02-13T02:49:15.614Z,0.90
2018-02-13T02:50:43.572Z,0.90
2018-02-13T02:52:10.635Z,0.88
2018-02-13T02:53:37.196Z,0.86
2018-02-13T02:55:03.864Z,0.86
2018-02-13T02:56:30.907Z,0.85
2018-02-13T02:57:58.081Z,0.82
2018-02-13T02:59:25.164Z,0.82
2018-02-13T03:00:51.288Z,0.81
2018-02-13T03:02:18.339Z,0.82
2018-02-13T03:03:45.239Z,0.81
2018-02-13T03:05:12.426Z,0.81
2018-02-13T03:06:40.183Z,0.82
2018-02-13T03:08:07.262Z,0.82
2018-02-13T03:09:32.839Z,0.81
2018-02-13T03:11:01.003Z,0.81
2018-02-13T03:12:28.371Z,0.81
2018-02-13T03:13:53.650Z,0.80
2018-02-13T03:15:21.062Z,0.79
2018-02-13T03:16:47.442Z,0.79
2018-02-13T03:18:15.660Z,0.78
2018-02-13T03:19:42.505Z,0.77
2018-02-13T03:21:08.317Z,0.76
2018-02-13T03:22:35.487Z,0.74
2018-02-13T03:24:02.647Z,0.74
2018-02-13T03:25:30.807Z,0.72
2018-02-13T03:26:56.124Z,0.70
2018-02-13T03:28:24.395Z,0.69
2018-02-13T03:29:50.791Z,0.69
2018-02-13T03:31:17.806Z,0.70
2018-02-13T03:32:44.921Z,0.70
2018-02-13T03:34:11.527Z,0.70
2018-02-13T03:35:37.398Z,0.70
2018-02-13T03:37:04.460Z,0.68
2018-02-13T03:38:32.671Z,0.67
2018-02-13T03:39:59.765Z,0.67
2018-02-13T03:41:25.872Z,0.67
2018-02-13T03:42:54.086Z,0.67
2018-02-13T03:44:21.067Z,0.66
2018-02-13T03:45:48.170Z,0.66
2018-02-13T03:47:13.703Z,0.66
2018-02-13T03:48:41.684Z,0.66
2018-02-13T03:50:08.301Z,0.65
2018-02-13T03:51:34.832Z,0.65
2018-02-13T03:53:01.049Z,0.65
2018-02-13T03:54:28.067Z,0.64
2018-02-13T03:55:54.942Z,0.62
2018-02-13T03:57:23.160Z,0.62
2018-02-13T03:58:50.294Z,0.60
2018-02-13T04:00:16.890Z,0.60
2018-02-13T04:01:42.513Z,0.60
2018-02-13T04:03:09.469Z,0.61
2018-02-13T04:04:37.452Z,0.61
2018-02-13T04:06:04.437Z,0.60
2018-02-13T04:07:30.704Z,0.60
2018-02-13T04:08:57.722Z,0.60
2018-02-13T04:10:26.077Z,0.60
2018-02-13T04:11:53.118Z,0.59
2018-02-13T04:13:19.496Z,0.59
2018-02-13T04:14:46.601Z,0.58
2018-02-13T04:16:13.752Z,0.59
2018-02-13T04:17:40.615Z,0.59
2018-02-13T04:19:06.697Z,0.57
2018-02-13T04:20:34.044Z,0.57
2018-02-13T04:22:00.303Z,0.55
2018-02-13T04:23:28.471Z,0.54
2018-02-13T04:24:54.967Z,0.54
2018-02-13T04:26:21.914Z,0.53
2018-02-13T04:27:49.059Z,0.52
2018-02-13T04:29:15.576Z,0.51
2018-02-13T04:30:41.415Z,0.51
2018-02-13T04:32:08.613Z,0.51
2018-02-13T04:33:36.692Z,0.51
2018-02-13T04:35:02.749Z,0.52
2018-02-13T04:36:29.860Z,0.52
2018-02-13T04:37:58.276Z,0.51
2018-02-13T04:39:24.739Z,0.50
2018-02-13T04:40:51.769Z,0.49
2018-02-13T04:42:18.818Z,0.50
2018-02-13T04:43:45.844Z,0.50
2018-02-13T04:45:13.117Z,0.50
2018-02-13T04:46:40.121Z,0.48
2018-02-13T04:48:06.269Z,0.48
2018-02-13T04:49:34.485Z,0.49
2018-02-13T04:51:00.082Z,0.50
2018-02-13T04:52:28.312Z,0.49
2018-02-13T04:53:54.317Z,0.49
2018-02-13T04:55:22.594Z,0.49
2018-02-13T04:56:48.207Z,0.48
2018-02-13T04:58:14.981Z,0.48
2018-02-13T04:59:42.884Z,0.47
2018-02-13T05:01:10.029Z,0.47
2018-02-13T05:02:37.326Z,0.47
2018-02-13T05:04:03.134Z,0.48
2018-02-13T05:05:30.331Z,0.50
2018-02-13T05:06:58.016Z,0.49
2018-02-13T05:08:24.972Z,0.49
2018-02-13T05:09:51.228Z,0.50
2018-02-13T05:11:18.391Z,0.49
2018-02-13T05:12:44.961Z,0.47
2018-02-13T05:14:11.982Z,0.48
2018-02-13T05:15:39.869Z,0.45
2018-02-13T05:17:07.075Z,0.43
2018-02-13T05:18:33.289Z,0.41
2018-02-13T05:20:01.082Z,0.39
2018-02-13T05:21:28.245Z,0.39
2018-02-13T05:22:54.973Z,0.39
2018-02-13T05:24:21.228Z,0.41
2018-02-13T05:25:48.296Z,0.42
2018-02-13T05:27:15.281Z,0.43
2018-02-13T05:28:42.899Z,0.43
2018-02-13T05:30:08.788Z,0.43
2018-02-13T05:31:35.956Z,0.40
2018-02-13T05:33:02.528Z,0.40
2018-02-13T05:34:30.537Z,0.39
2018-02-13T05:35:59.611Z,0.39
2018-02-13T05:37:23.590Z,0.39
2018-02-13T05:38:51.243Z,0.39
2018-02-13T05:40:17.293Z,0.39
2018-02-13T05:41:45.373Z,0.39
2018-02-13T05:43:12.159Z,0.36
2018-02-13T05:44:39.194Z,0.32
2018-02-13T05:46:06.253Z,0.31
2018-02-13T05:47:33.571Z,0.29
2018-02-13T05:48:59.109Z,0.27
2018-02-13T05:50:26.325Z,0.28
2018-02-13T05:51:53.433Z,0.29
2018-02-13T05:53:21.433Z,0.30
2018-02-13T05:54:47.552Z,0.29
2018-02-13T05:56:14.703Z,0.27
2018-02-13T05:57:41.614Z,0.28
2018-02-13T05:59:09.566Z,0.27
2018-02-13T06:00:36.807Z,0.26
2018-02-13T06:02:02.438Z,0.25
2018-02-13T06:03:29.492Z,0.21
2018-02-13T06:04:57.656Z,0.19
2018-02-13T06:06:24.923Z,0.19
2018-02-13T06:07:52.043Z,0.18
2018-02-13T06:09:17.706Z,0.18
2018-02-13T06:10:45.770Z,0.14
2018-02-13T06:12:13.007Z,0.14
2018-02-13T06:13:39.977Z,0.10
2018-02-13T06:15:07.359Z,0.08
2018-02-13T06:16:34.377Z,0.09
2018-02-13T06:18:01.497Z,0.09
2018-02-13T06:19:28.450Z,0.07
2018-02-13T06:20:55.574Z,0.09
2018-02-13T06:22:22.664Z,0.06
2018-02-13T06:23:50.019Z,0.04
2018-02-13T06:25:16.140Z,0.05
2018-02-13T06:26:43.114Z,0.06
2018-02-13T06:28:10.462Z,0.07
2018-02-13T06:29:38.276Z,0.08
2018-02-13T06:31:04.357Z,0.09
2018-02-13T06:32:31.296Z,0.09
2018-02-13T06:33:58.362Z,0.06
2018-02-13T06:35:26.624Z,0.05
2018-02-13T06:36:53.667Z,0.04
2018-02-13T06:38:19.841Z,0.05
2018-02-13T06:39:47.616Z,0.07
2018-02-13T06:41:14.972Z,0.07
2018-02-13T06:42:41.901Z,0.08
2018-02-13T06:44:09.193Z,0.06
2018-02-13T06:45:35.815Z,0.07
2018-02-13T06:47:02.596Z,0.09
2018-02-13T06:48:29.615Z,0.09
2018-02-13T06:49:56.659Z,0.07
2018-02-13T06:51:22.451Z,0.09
2018-02-13T06:52:49.338Z,0.10
2018-02-13T06:54:17.452Z,0.11
2018-02-13T06:55:43.618Z,0.13
2018-02-13T06:57:10.451Z,0.11
2018-02-13T06:58:37.033Z,0.11
2018-02-13T07:00:04.019Z,0.11
2018-02-13T07:01:32.093Z,0.13
2018-02-13T07:02:57.867Z,0.15
2018-02-13T07:04:24.716Z,0.20
2018-02-13T07:05:52.800Z,0.24
2018-02-13T07:07:20.206Z,0.28
2018-02-13T07:08:46.246Z,0.32
2018-02-13T07:10:13.346Z,0.35
2018-02-13T07:11:40.368Z,0.37
2018-02-13T07:13:07.575Z,0.41
2018-02-13T07:14:35.185Z,0.47
2018-02-13T07:16:02.522Z,0.50
2018-02-13T07:17:29.460Z,0.53
2018-02-13T07:18:55.740Z,0.57
2018-02-13T07:20:22.918Z,0.60
2018-02-13T07:21:51.137Z,0.63
2018-02-13T07:23:17.899Z,0.62
2018-02-13T07:24:45.173Z,0.61
2018-02-13T07:26:11.139Z,0.61
2018-02-13T07:27:39.087Z,0.62
2018-02-13T07:29:06.096Z,0.63
2018-02-13T07:30:33.355Z,0.64
2018-02-13T07:32:00.277Z,0.64
2018-02-13T07:33:27.317Z,0.66
2018-02-13T07:34:54.001Z,0.68
2018-02-13T07:36:21.071Z,0.71
2018-02-13T07:37:48.121Z,0.71
2018-02-13T07:39:15.109Z,0.72
2018-02-13T07:40:41.114Z,0.72
2018-02-13T07:42:07.920Z,0.74
2018-02-13T07:43:35.649Z,0.74
2018-02-13T07:45:01.868Z,0.75
2018-02-13T07:46:29.831Z,0.73
2018-02-13T07:47:56.109Z,0.75
2018-02-13T07:49:23.291Z,0.75
2018-02-13T07:50:50.428Z,0.76
2018-02-13T07:52:18.037Z,0.77
2018-02-13T07:53:44.250Z,0.77
2018-02-13T07:55:10.875Z,0.77
2018-02-13T07:56:38.371Z,0.76
2018-02-13T07:58:05.348Z,0.75
2018-02-13T07:59:31.610Z,0.75
2018-02-13T08:00:58.977Z,0.75
2018-02-13T08:02:26.311Z,0.76
2018-02-13T08:03:54.203Z,0.77
2018-02-13T08:05:21.275Z,0.78
2018-02-13T08:06:48.632Z,0.79
2018-02-13T08:08:15.707Z,0.80
2018-02-13T08:09:41.775Z,0.79
2018-02-13T08:11:09.824Z,0.79
2018-02-13T08:12:35.905Z,0.79
2018-02-13T08:14:04.022Z,0.78
2018-02-13T08:15:30.852Z,0.76
2018-02-13T08:16:57.121Z,0.77
2018-02-13T08:18:24.923Z,0.77
2018-02-13T08:19:51.688Z,0.78
2018-02-13T08:21:18.485Z,0.78
2018-02-13T08:22:45.189Z,0.80
2018-02-13T08:24:12.146Z,0.82
2018-02-13T08:25:38.078Z,0.85
2018-02-13T08:27:06.308Z,0.87
2018-02-13T08:28:32.271Z,0.88
2018-02-13T08:29:59.440Z,0.92
2018-02-13T08:31:27.282Z,0.95
2018-02-13T08:32:54.342Z,0.97
2018-02-13T08:34:20.945Z,1.01
2018-02-13T08:35:47.769Z,1.04
2018-02-13T08:37:14.646Z,1.05
2018-02-13T08:38:40.667Z,1.08
2018-02-13T08:40:07.387Z,1.10
2018-02-13T08:41:34.903Z,1.11
2018-02-13T08:43:01.994Z,1.14
2018-02-13T08:44:29.072Z,1.17
2018-02-13T08:45:56.226Z,1.18
2018-02-13T08:47:22.404Z,1.20
2018-02-13T08:48:49.420Z,1.22
2018-02-13T08:50:16.483Z,1.24
2018-02-13T08:51:43.588Z,1.24
2018-02-13T08:53:11.263Z,1.24
2018-02-13T08:54:38.216Z,1.25
2018-02-13T08:56:04.918Z,1.27
2018-02-13T08:57:30.967Z,1.27
2018-02-13T08:58:58.049Z,1.28
2018-02-13T09:00:25.181Z,1.28
2018-02-13T09:01:53.418Z,1.31
2018-02-13T09:03:19.519Z,1.32
2018-02-13T09:04:46.333Z,1.35
2018-02-13T09:06:13.564Z,1.38
2018-02-13T09:07:41.665Z,1.42
2018-02-13T09:09:07.815Z,1.46
2018-02-13T09:10:35.750Z,1.51
2018-02-13T09:12:01.852Z,1.57
2018-02-13T09:13:29.184Z,1.62
2018-02-13T09:14:57.595Z,1.66
2018-02-13T09:16:24.718Z,1.72
2018-02-13T09:17:51.810Z,1.76
2018-02-13T09:19:17.821Z,1.79
2018-02-13T09:20:45.901Z,1.83
2018-02-13T09:22:12.977Z,1.86
2018-02-13T09:23:40.018Z,1.87
2018-02-13T09:25:06.457Z,1.88
2018-02-13T09:26:34.694Z,1.89
2018-02-13T09:28:00.389Z,1.90
2018-02-13T09:29:27.215Z,1.91
2018-02-13T09:30:55.425Z,1.94
2018-02-13T09:32:22.554Z,1.97
2018-02-13T09:33:48.336Z,1.99
2018-02-13T09:35:16.245Z,2.02
2018-02-13T09:36:42.465Z,2.05
2018-02-13T09:38:09.709Z,2.07
2018-02-13T09:39:36.754Z,2.09
2018-02-13T09:41:04.990Z,2.12
2018-02-13T09:42:31.824Z,2.16
2018-02-13T09:43:57.884Z,2.18
2018-02-13T09:45:25.037Z,2.22
2018-02-13T09:46:52.989Z,2.25
2018-02-13T09:48:19.031Z,2.29
2018-02-13T09:49:47.244Z,2.32
2018-02-13T09:51:13.445Z,2.34
2018-02-13T09:52:41.548Z,2.37
2018-02-13T09:54:08.561Z,2.40
2018-02-13T09:55:34.640Z,2.43
2018-02-13T09:57:02.299Z,2.45
2018-02-13T09:59:56.564Z,2.47
2018-02-13T10:01:23.583Z,2.50
2018-02-13T10:02:50.569Z,2.52
2018-02-13T10:04:17.685Z,2.53
2018-02-13T10:05:44.734Z,2.53
2018-02-13T10:07:10.605Z,2.55
2018-02-13T10:08:37.672Z,2.57
2018-02-13T10:10:05.038Z,2.60
2018-02-13T10:11:31.774Z,2.64
2018-02-13T10:12:59.947Z,2.68
2018-02-13T10:14:25.939Z,2.70
2018-02-13T10:15:54.227Z,2.73
2018-02-13T10:17:20.740Z,2.75
2018-02-13T10:18:47.816Z,2.77
2018-02-13T10:20:15.063Z,2.82
2018-02-13T10:21:41.738Z,2.86
2018-02-13T10:23:08.834Z,2.92
2018-02-13T10:24:35.718Z,2.95
2018-02-13T10:26:01.829Z,2.98
2018-02-13T10:27:29.182Z,3.02
2018-02-13T10:28:57.306Z,3.05
2018-02-13T10:30:23.702Z,3.07
2018-02-13T10:31:50.842Z,3.09
2018-02-13T10:33:18.073Z,3.11
2018-02-13T10:34:45.288Z,3.13
2018-02-13T10:36:13.192Z,3.16
2018-02-13T10:37:40.225Z,3.17
2018-02-13T10:39:06.129Z,3.18
2018-02-13T10:40:33.095Z,3.15
2018-02-13T10:42:01.102Z,3.17
2018-02-13T10:43:28.077Z,3.18
2018-02-13T10:44:55.317Z,3.17
2018-02-13T10:46:22.472Z,3.14
2018-02-13T10:47:49.701Z,3.14
2018-02-13T10:49:16.884Z,3.15
2018-02-13T10:50:44.081Z,3.19
2018-02-13T10:52:10.138Z,3.22
2018-02-13T10:53:37.945Z,3.22
2018-02-13T10:55:04.185Z,3.21
2018-02-13T10:56:32.469Z,3.22
2018-02-13T10:57:59.366Z,3.23
2018-02-13T10:59:25.213Z,3.22
2018-02-13T11:00:53.406Z,3.21
2018-02-13T11:02:20.477Z,3.22
2018-02-13T11:03:46.365Z,3.25
2018-02-13T11:05:13.162Z,3.26
2018-02-13T11:06:39.988Z,3.29
2018-02-13T11:08:07.026Z,3.32
2018-02-13T11:09:34.149Z,3.33
2018-02-13T11:11:02.436Z,3.35
2018-02-13T11:12:29.686Z,3.37
2018-02-13T11:13:56.609Z,3.40
2018-02-13T11:15:22.576Z,3.44
2018-02-13T11:16:49.876Z,3.47
2018-02-13T11:18:16.974Z,3.48
2018-02-13T11:19:44.208Z,3.48
2018-02-13T11:21:11.253Z,3.51
2018-02-13T11:22:39.527Z,3.52
2018-02-13T11:24:05.808Z,3.52
2018-02-13T11:25:32.883Z,3.53
2018-02-13T11:27:01.285Z,3.57
2018-02-13T11:28:27.552Z,3.61
2018-02-13T11:29:55.698Z,3.64
2018-02-13T11:31:22.028Z,3.69
2018-02-13T11:32:49.140Z,3.74
2018-02-13T11:34:16.871Z,3.79
2018-02-13T11:35:42.759Z,3.84
2018-02-13T11:37:10.024Z,3.92
2018-02-13T11:38:36.767Z,4.01
2018-02-13T11:40:04.054Z,4.10
2018-02-13T11:41:32.276Z,4.19
2018-02-13T11:42:58.273Z,4.29
2018-02-13T11:44:26.534Z,4.37
2018-02-13T11:45:52.576Z,4.45
2018-02-13T11:47:19.770Z,4.54
2018-02-13T11:48:48.182Z,4.63
2018-02-13T11:50:14.411Z,4.72
2018-02-13T11:51:41.506Z,4.82
2018-02-13T11:53:09.768Z,4.93
2018-02-13T11:54:35.944Z,5.01
2018-02-13T11:56:04.132Z,5.06
2018-02-13T11:57:31.591Z,5.13
2018-02-13T11:58:57.770Z,5.21
2018-02-13T12:00:26.030Z,5.27
2018-02-13T12:01:52.348Z,5.32
2018-02-13T12:03:19.426Z,5.39
2018-02-13T12:04:46.566Z,5.44
2018-02-13T12:06:14.555Z,5.44
2018-02-13T12:07:40.942Z,5.48
2018-02-13T12:09:08.957Z,5.54
2018-02-13T12:10:34.724Z,5.55
2018-02-13T12:12:02.025Z,5.59
2018-02-13T12:13:30.188Z,5.64
2018-02-13T12:14:56.275Z,5.64
2018-02-13T12:16:24.461Z,5.70
2018-02-13T12:17:50.779Z,5.78
2018-02-13T12:19:18.861Z,5.85
2018-02-13T12:20:45.263Z,5.90
2018-02-13T12:22:12.387Z,5.97
2018-02-13T12:23:40.522Z,6.00
2018-02-13T12:25:06.476Z,6.07
2018-02-13T12:28:00.993Z,6.30
2018-02-13T12:29:29.317Z,6.41
2018-02-13T12:30:55.517Z,6.53
2018-02-13T12:32:22.813Z,6.63
2018-02-13T12:33:51.135Z,6.73
2018-02-13T12:35:17.301Z,6.84
2018-02-13T12:36:44.567Z,6.95
2018-02-13T12:38:11.441Z,7.06
2018-02-13T12:39:39.356Z,7.15
2018-02-13T12:41:05.698Z,7.25
2018-02-13T12:42:33.013Z,7.33
2018-02-13T12:44:00.261Z,7.40
2018-02-13T12:45:28.681Z,7.41
2018-02-13T12:46:54.818Z,7.42
2018-02-13T12:48:23.299Z,7.49
2018-02-13T12:49:50.266Z,7.61
2018-02-13T12:51:16.620Z,7.64
2018-02-13T12:52:44.604Z,7.61
2018-02-13T12:54:10.815Z,7.64
2018-02-13T12:55:38.011Z,7.67
2018-02-13T12:57:06.153Z,7.72
2018-02-13T12:58:32.447Z,7.74
2018-02-13T12:59:59.780Z,7.83
2018-02-13T13:01:27.048Z,7.89
2018-02-13T13:02:54.348Z,7.92
2018-02-13T13:04:22.598Z,7.99
2018-02-13T13:05:49.976Z,8.00
2018-02-13T13:07:17.330Z,8.05
2018-02-13T13:08:43.500Z,8.01
2018-02-13T13:10:10.724Z,7.96
2018-02-13T13:11:37.917Z,7.96
2018-02-13T13:13:05.673Z,7.96
2018-02-13T13:14:31.884Z,8.04
2018-02-13T13:15:58.780Z,8.13
2018-02-13T13:17:27.200Z,8.20
2018-02-13T13:18:53.478Z,8.24
2018-02-13T13:20:21.760Z,8.29
2018-02-13T13:21:49.033Z,8.36
2018-02-13T13:23:15.090Z,8.38
2018-02-13T13:24:42.280Z,8.42
2018-02-13T13:26:10.716Z,8.44
2018-02-13T13:27:37.153Z,8.46
2018-02-13T13:29:04.296Z,8.49
2018-02-13T13:30:31.576Z,8.43
2018-02-13T13:31:57.855Z,8.42
2018-02-13T13:33:26.365Z,8.46
2018-02-13T13:34:53.562Z,8.46
2018-02-13T13:36:20.842Z,8.41
2018-02-13T13:37:46.826Z,8.42
2018-02-13T13:39:13.776Z,8.44
2018-02-13T13:40:40.551Z,8.41
2018-02-13T13:42:08.390Z,8.35
2018-02-13T13:43:34.836Z,8.30
2018-02-13T13:45:01.498Z,8.28
2018-02-13T13:46:28.704Z,8.25
2018-02-13T13:47:56.038Z,8.23
2018-02-13T13:49:23.523Z,8.19
2018-02-13T13:50:49.776Z,8.17
2018-02-13T13:52:16.995Z,8.13
2018-02-13T13:53:44.231Z,8.07
2018-02-13T13:55:11.618Z,7.90
2018-02-13T13:56:39.832Z,7.81
2018-02-13T13:58:06.035Z,7.76
2018-02-13T13:59:33.836Z,7.73
2018-02-13T14:01:00.103Z,7.73
2018-02-13T14:02:28.508Z,7.72
2018-02-13T14:03:54.825Z,7.69
2018-02-13T14:05:22.135Z,7.66
2018-02-13T14:06:49.984Z,7.66
2018-02-13T14:08:15.740Z,7.66
2018-02-13T14:09:43.981Z,7.71
2018-02-13T14:11:10.098Z,7.68
2018-02-13T14:12:37.344Z,7.68
2018-02-13T14:14:04.268Z,7.64
2018-02-13T14:15:31.471Z,7.62
2018-02-13T14:16:59.909Z,7.60
2018-02-13T14:18:26.065Z,7.56
2018-02-13T14:19:53.550Z,7.48
2018-02-13T14:21:20.696Z,7.40
2018-02-13T14:22:47.026Z,7.32
2018-02-13T14:24:15.101Z,7.23
2018-02-13T14:25:41.528Z,7.15
2018-02-13T14:27:08.404Z,7.06
2018-02-13T14:28:36.572Z,6.97
2018-02-13T14:30:02.865Z,6.88
2018-02-13T14:31:30.813Z,6.77
2018-02-13T14:32:57.225Z,6.71
2018-02-13T14:34:25.156Z,6.64
2018-02-13T14:35:51.367Z,6.57
2018-02-13T14:37:19.504Z,6.51
2018-02-13T14:38:46.689Z,6.46
2018-02-13T14:40:13.046Z,6.41
2018-02-13T14:41:40.134Z,6.35
2018-02-13T14:43:07.396Z,6.32
2018-02-13T14:44:35.687Z,6.27
2018-02-13T14:46:03.070Z,6.25
2018-02-13T14:47:28.980Z,6.23
2018-02-13T14:48:55.815Z,6.22
2018-02-13T14:50:24.148Z,6.20
2018-02-13T14:51:50.474Z,6.18
2018-02-13T14:53:17.707Z,6.15
2018-02-13T14:54:46.042Z,6.10
2018-02-13T14:56:13.186Z,6.03
2018-02-13T14:57:39.561Z,5.99
2018-02-13T14:59:06.415Z,5.95
2018-02-13T15:00:33.720Z,5.94
2018-02-13T15:02:00.844Z,5.88
2018-02-13T15:03:28.107Z,5.85
2018-02-13T15:04:56.407Z,5.82
2018-02-13T15:06:22.614Z,5.78
2018-02-13T15:07:50.883Z,5.74
2018-02-13T15:09:17.248Z,5.69
2018-02-13T15:10:44.516Z,5.64
2018-02-13T15:12:12.559Z,5.61
2018-02-13T15:13:38.761Z,5.59
2018-02-13T15:15:06.098Z,5.55
2018-02-13T15:16:34.295Z,5.48
2018-02-13T15:18:00.480Z,5.43
2018-02-13T15:19:27.984Z,5.40
2018-02-13T15:20:55.174Z,5.38
2018-02-13T15:22:22.436Z,5.38
2018-02-13T15:23:49.716Z,5.36
2018-02-13T15:25:16.998Z,5.34
2018-02-13T15:26:45.184Z,5.32
2018-02-13T15:28:11.557Z,5.24
2018-02-13T15:29:38.726Z,5.22
2018-02-13T15:31:06.820Z,5.19
2018-02-13T15:32:32.882Z,5.18
2018-02-13T15:34:00.367Z,5.16
2018-02-13T15:35:27.666Z,5.15
2018-02-13T15:36:55.752Z,5.14
2018-02-13T15:38:21.973Z,5.12
2018-02-13T15:39:49.138Z,5.11
2018-02-13T15:41:16.363Z,5.09
2018-02-13T15:42:43.536Z,5.07
2018-02-13T15:44:10.757Z,5.05
2018-02-13T15:45:37.900Z,5.03
2018-02-13T15:47:05.166Z,5.01
2018-02-13T15:48:33.259Z,4.99
2018-02-13T15:49:59.671Z,4.96
2018-02-13T15:51:27.947Z,4.93
2018-02-13T15:52:54.250Z,4.91
2018-02-13T15:54:21.471Z,4.88
2018-02-13T15:55:49.619Z,4.86
2018-02-13T15:57:15.815Z,4.81
2018-02-13T15:58:44.120Z,4.77
2018-02-13T16:00:10.347Z,4.76
2018-02-13T16:01:38.228Z,4.74
2018-02-13T16:03:05.691Z,4.74
2018-02-13T16:04:31.938Z,4.73
2018-02-13T16:06:00.069Z,4.71
2018-02-13T16:07:26.294Z,4.68
2018-02-13T16:08:53.452Z,4.67
2018-02-13T16:10:20.666Z,4.66
2018-02-13T16:11:47.843Z,4.63
2018-02-13T16:13:14.885Z,4.62
2018-02-13T16:14:42.064Z,4.59
2018-02-13T16:16:10.373Z,4.57
2018-02-13T16:17:36.616Z,4.53
2018-02-13T16:19:03.847Z,4.49
2018-02-13T16:20:31.164Z,4.46
2018-02-13T16:21:59.180Z,4.45
2018-02-13T16:23:26.324Z,4.41
2018-02-13T16:24:53.673Z,4.38
2018-02-13T16:26:19.896Z,4.35
2018-02-13T16:27:48.214Z,4.31
2018-02-13T16:29:15.437Z,4.28
2018-02-13T16:30:42.239Z,4.27
2018-02-13T16:32:08.420Z,4.25
2018-02-13T16:33:36.278Z,4.22
2018-02-13T16:35:02.600Z,4.17
2018-02-13T16:36:30.860Z,4.13
2018-02-13T16:37:57.224Z,4.10
2018-02-13T16:39:24.296Z,4.07
2018-02-13T16:40:52.669Z,4.04
2018-02-13T16:42:19.669Z,3.97
2018-02-13T16:43:46.917Z,3.93
2018-02-13T16:45:13.270Z,3.92
2018-02-13T16:46:40.375Z,3.90
2018-02-13T16:48:07.413Z,3.88
2018-02-13T16:49:34.682Z,3.85
2018-02-13T16:51:02.768Z,3.81
2018-02-13T16:52:29.853Z,3.76
2018-02-13T16:53:57.073Z,3.70
2018-02-13T16:55:24.158Z,3.58
2018-02-13T16:56:50.064Z,3.53
2018-02-13T16:58:18.130Z,3.48
2018-02-13T16:59:44.306Z,3.46
2018-02-13T17:01:11.517Z,3.42
2018-02-13T17:02:38.645Z,3.39
2018-02-13T17:04:05.953Z,3.34
2018-02-13T17:05:34.034Z,3.31
2018-02-13T17:07:00.364Z,3.29
2018-02-13T17:08:27.624Z,3.25
2018-02-13T17:09:55.894Z,3.23
2018-02-13T17:11:22.003Z,3.18
2018-02-13T17:12:49.344Z,3.15
2018-02-13T17:14:17.589Z,3.12
2018-02-13T17:15:44.792Z,3.07
2018-02-13T17:17:10.900Z,3.02
2018-02-13T17:18:38.091Z,2.99
2018-02-13T17:20:06.393Z,2.96
2018-02-13T17:21:32.590Z,2.91
2018-02-13T17:22:59.884Z,2.87
2018-02-13T17:24:27.233Z,2.85
2018-02-13T17:25:54.492Z,2.82
2018-02-13T17:27:21.806Z,2.79
2018-02-13T17:28:49.070Z,2.76
2018-02-13T17:30:16.267Z,2.75
2018-02-13T17:31:44.373Z,2.73
2018-02-13T17:33:11.483Z,2.71
2018-02-13T17:34:38.652Z,2.68
2018-02-13T17:36:04.740Z,2.65
2018-02-13T17:37:32.162Z,2.63
2018-02-13T17:39:00.498Z,2.61
2018-02-13T17:40:27.955Z,2.57
2018-02-13T17:41:54.784Z,2.55
2018-02-13T17:43:20.943Z,2.53
2018-02-13T17:44:49.041Z,2.52
2018-02-13T17:46:15.319Z,2.50
2018-02-13T17:47:43.489Z,2.47
2018-02-13T17:49:09.541Z,2.44
2018-02-13T17:50:36.589Z,2.41
2018-02-13T17:52:04.854Z,2.40
2018-02-13T17:53:30.779Z,2.36
2018-02-13T17:54:57.913Z,2.33
2018-02-13T17:56:25.053Z,2.31
2018-02-13T17:57:52.132Z,2.28
2018-02-13T17:59:19.168Z,2.25
2018-02-13T18:00:46.193Z,2.24
2018-02-13T18:02:13.171Z,2.23
2018-02-13T18:03:41.470Z,2.22
2018-02-13T18:05:08.005Z,2.19
2018-02-13T18:06:34.373Z,2.17
2018-02-13T18:08:02.378Z,2.16
2018-02-13T18:09:28.468Z,2.14
2018-02-13T18:10:55.613Z,2.13
2018-02-13T18:12:22.857Z,2.13
2018-02-13T18:13:49.752Z,2.12
2018-02-13T18:15:17.879Z,2.15
2018-02-13T18:16:44.975Z,2.17
2018-02-13T18:18:12.357Z,2.16
2018-02-13T18:19:38.549Z,2.14
2018-02-13T18:21:06.747Z,2.10
2018-02-13T18:22:32.810Z,2.02
2018-02-13T18:24:01.093Z,1.96
2018-02-13T18:25:27.274Z,1.95
2018-02-13T18:26:55.521Z,1.96
2018-02-13T18:28:22.530Z,1.95
2018-02-13T18:29:48.542Z,1.94
2018-02-13T18:31:15.697Z,1.96
2018-02-13T18:32:43.962Z,1.95
2018-02-13T18:34:09.929Z,1.95
2018-02-13T18:35:37.887Z,1.95
2018-02-13T18:37:03.992Z,1.95
2018-02-13T18:38:31.113Z,1.95
2018-02-13T18:39:58.847Z,1.92
2018-02-13T18:41:24.988Z,1.92
2018-02-13T18:42:53.083Z,1.92
2018-02-13T18:44:19.260Z,1.91
2018-02-13T18:45:47.242Z,1.91
2018-02-13T18:47:13.174Z,1.90
2018-02-13T18:48:40.428Z,1.90
2018-02-13T18:50:08.228Z,1.90
2018-02-13T18:51:34.232Z,1.91
2018-02-13T18:54:27.889Z,1.94
2018-02-13T18:55:54.607Z,1.96
2018-02-13T18:57:22.709Z,1.99
2018-02-13T18:58:49.105Z,2.01
2018-02-13T19:00:17.037Z,2.02
2018-02-13T19:01:43.039Z,2.05
2018-02-13T19:03:10.202Z,2.07
2018-02-13T19:04:38.230Z,2.04
2018-02-13T19:06:05.405Z,1.96
2018-02-13T19:07:32.643Z,1.82
2018-02-13T19:08:59.766Z,1.71
2018-02-13T19:10:27.096Z,1.54
2018-02-13T19:11:54.078Z,1.41
2018-02-13T19:13:20.133Z,1.28
2018-02-13T19:14:47.237Z,1.18
2018-02-13T19:16:14.298Z,1.12
2018-02-13T19:17:42.306Z,1.07
2018-02-13T19:19:09.655Z,1.05
2018-02-13T19:20:35.864Z,1.05
2018-02-13T19:22:02.999Z,1.05
2018-02-13T19:23:30.050Z,1.08